Observations for Trim Market St
| Time | AQI | Temp °C | Hum % | Pres Pa | CO μg/m³ | H₂S μg/m³ | NO μg/m³ | NO₂ μg/m³ | O₃ μg/m³ | SO₂ μg/m³ | PM1 μg/m³ | PM2.5 μg/m³ | PM10 μg/m³ |
|---|---|---|---|---|---|---|---|---|---|---|---|---|---|
| Tuesday 25 August 2026 | |||||||||||||
| 09:31 | 2 | 21.9 | 56 | 57,730 | 0 | 0 | 1.28 | 11.51 | 61.2 | 0 | 0.71 | 3.2 | 3.98 |
| 09:30 | 2 | 21.9 | 56 | 57,731 | 0 | 0 | 1.27 | 9.58 | 62.6 | 0 | 2.14 | 4.21 | 6.11 |
| 09:28 | 2 | 21.9 | 56 | 57,730 | 0 | 0 | 1.28 | 9.85 | 63.63 | 0 | 0.71 | 3.7 | 4.7 |
| 09:27 | 2 | 21.9 | 56 | 57,731 | 0 | 0 | 1.27 | 10.19 | 63.56 | 0 | 1.43 | 3.7 | 4.7 |
| 09:26 | 2 | 21.9 | 56 | 57,732 | 0 | 0 | 1.28 | 9.93 | 63.44 | 0 | 0.71 | 3.19 | 3.99 |
| 09:25 | 2 | 21.9 | 56 | 57,733 | 0 | 0 | 1.23 | 10.72 | 63.31 | 0 | 1.43 | 5.72 | 8.24 |
| 09:24 | 2 | 21.9 | 56 | 57,736 | 0 | 0 | 1.28 | 10.46 | 63.94 | 0 | 0.71 | 3.2 | 6.11 |
| 09:21 | 2 | 21.9 | 56 | 57,739 | 0 | 0 | 1.27 | 9.15 | 63.85 | 0 | 0.71 | 3.71 | 4.69 |
| 09:19 | 2 | 21.9 | 56 | 57,738 | 0 | 0 | 1.27 | 8.9 | 63.27 | 0 | 0.71 | 3.2 | 3.98 |
| 09:18 | 2 | 21.9 | 56 | 57,738 | 0 | 0 | 1.27 | 9.5 | 64.07 | 0 | 0.71 | 3.2 | 4.69 |
| 09:17 | 2 | 22 | 56 | 57,740 | 0 | 0 | 1.29 | 9.2 | 62.69 | 0 | 0.71 | 3.21 | 3.98 |
| 09:16 | 2 | 22 | 56 | 57,741 | 0 | 0 | 1.29 | 9.46 | 62.72 | 0 | 0.71 | 3.21 | 4.69 |
| 09:15 | 2 | 22 | 56 | 57,742 | 0 | 0 | 1.28 | 10.62 | 62.16 | 0 | 1.43 | 3.72 | 7.53 |
| 09:14 | 2 | 22 | 56 | 57,743 | 0 | 0 | 1.27 | 10.23 | 63.08 | 0 | 0.71 | 3.22 | 3.97 |
| 09:12 | 2 | 22.1 | 56 | 57,744 | 0 | 0 | 1.25 | 8.42 | 62.12 | 0 | 0.71 | 3.73 | 6.1 |
| 09:11 | 2 | 22.1 | 56 | 57,742 | 0 | 0 | 1.28 | 8.15 | 63.12 | 0 | 0.71 | 3.73 | 5.39 |
| 09:08 | 2 | 22.2 | 56 | 57,736 | 0 | 0 | 1.28 | 8.69 | 63.59 | 0 | 1.43 | 3.74 | 4.68 |
| 09:06 | 2 | 22.2 | 55 | 57,730 | 0 | 0 | 1.28 | 8.41 | 62.81 | 0 | 0.71 | 3.75 | 4.67 |
| 09:05 | 2 | 22.2 | 55 | 57,720 | 0 | 0 | 1.28 | 8.12 | 62.81 | 0 | 0.71 | 2.74 | 3.24 |
| 09:02 | 2 | 22.3 | 55 | 57,668 | 0 | 0 | 1.28 | 7.85 | 62.93 | 0 | 1.43 | 3.76 | 5.38 |